createdAt,value
2023-05-16T00:04:12.279Z,9.62
2023-05-16T00:09:14.106Z,9.72
2023-05-16T00:14:16.214Z,9.82
2023-05-16T00:19:17.959Z,9.94
2023-05-16T00:24:19.667Z,10.05
2023-05-16T00:29:22.057Z,10.17
2023-05-16T00:34:23.822Z,10.34
2023-05-16T00:39:27.386Z,10.47
2023-05-16T00:44:31.682Z,10.52
2023-05-16T00:49:33.872Z,10.50
2023-05-16T00:54:36.079Z,10.48
2023-05-16T00:59:37.966Z,10.53
2023-05-16T01:04:40.426Z,10.56
2023-05-16T01:09:42.353Z,10.49
2023-05-16T01:15:13.392Z,10.35
2023-05-16T01:20:40.693Z,10.21
2023-05-16T01:25:48.013Z,10.14
2023-05-16T01:30:51.479Z,10.10
2023-05-16T01:36:01.167Z,10.01
2023-05-16T01:41:11.749Z,9.91
2023-05-16T01:46:16.610Z,9.82
2023-05-16T01:51:22.894Z,9.76
2023-05-16T01:56:26.818Z,9.70
2023-05-16T02:01:30.010Z,9.62
2023-05-16T02:06:32.847Z,9.51
2023-05-16T02:11:34.613Z,9.42
2023-05-16T02:16:36.661Z,9.37
2023-05-16T02:21:38.411Z,9.34
2023-05-16T02:26:40.151Z,9.28
2023-05-16T02:31:42.790Z,9.19
2023-05-16T02:36:44.598Z,9.13
2023-05-16T02:41:46.222Z,9.12
2023-05-16T02:46:48.003Z,9.11
2023-05-16T02:51:50.437Z,9.05
2023-05-16T02:56:52.110Z,8.97
2023-05-16T03:01:54.741Z,8.92
2023-05-16T03:06:56.696Z,8.93
2023-05-16T03:11:59.592Z,8.94
2023-05-16T03:17:01.368Z,8.92
2023-05-16T03:22:04.168Z,8.95
2023-05-16T03:27:05.845Z,9.04
2023-05-16T03:32:07.797Z,9.15
2023-05-16T03:37:11.089Z,9.22
2023-05-16T03:42:13.104Z,9.24
2023-05-16T03:47:14.981Z,9.29
2023-05-16T03:52:16.691Z,9.45
2023-05-16T03:57:18.403Z,9.62
2023-05-16T04:02:20.656Z,9.78
2023-05-16T04:07:23.825Z,9.88
2023-05-16T04:12:25.692Z,9.99
2023-05-16T04:17:27.429Z,10.13
2023-05-16T04:22:29.271Z,10.26
2023-05-16T04:27:31.609Z,10.43
2023-05-16T04:32:35.405Z,10.56
2023-05-16T04:38:02.754Z,10.73
2023-05-16T04:43:04.672Z,10.96
2023-05-16T04:48:06.984Z,11.15
2023-05-16T04:53:08.720Z,11.31
2023-05-16T04:58:10.356Z,11.47
2023-05-16T05:03:12.138Z,11.70
2023-05-16T05:08:14.046Z,11.98
2023-05-16T05:13:15.717Z,12.28
2023-05-16T05:18:17.818Z,12.59
2023-05-16T05:23:20.820Z,12.79
2023-05-16T05:28:22.492Z,13.14
2023-05-16T05:33:29.341Z,13.40
2023-05-16T05:38:31.393Z,13.67
2023-05-16T05:43:34.018Z,13.90
2023-05-16T05:48:35.990Z,14.19
2023-05-16T05:53:37.722Z,14.46
2023-05-16T05:58:41.962Z,14.63
2023-05-16T06:03:43.721Z,14.81
2023-05-16T06:08:45.612Z,14.92
2023-05-16T06:13:47.890Z,15.04
2023-05-16T06:18:49.889Z,15.13
2023-05-16T06:23:51.845Z,15.18
2023-05-16T06:28:55.987Z,15.24
2023-05-16T06:34:02.895Z,15.38
2023-05-16T06:39:05.008Z,15.44
2023-05-16T06:44:06.710Z,15.63
2023-05-16T06:49:08.447Z,15.76
2023-05-16T06:54:10.130Z,15.89
2023-05-16T06:59:11.888Z,16.13
2023-05-16T07:04:13.829Z,16.43
2023-05-16T07:09:15.614Z,16.64
2023-05-16T07:14:17.382Z,16.87
2023-05-16T07:19:19.181Z,17.21
2023-05-16T07:24:21.213Z,17.36
2023-05-16T07:29:23.040Z,17.40
2023-05-16T07:34:24.821Z,17.52
2023-05-16T07:39:26.680Z,17.62
2023-05-16T07:44:28.848Z,17.85
2023-05-16T07:49:30.872Z,18.16
2023-05-16T07:54:33.425Z,18.41
2023-05-16T07:59:35.249Z,18.68
2023-05-16T08:04:37.700Z,19.00
2023-05-16T08:09:39.376Z,19.24
2023-05-16T08:14:41.150Z,19.52
2023-05-16T08:19:43.207Z,19.85
2023-05-16T08:24:44.910Z,20.08
2023-05-16T08:29:46.586Z,20.22
2023-05-16T08:34:48.323Z,20.31
2023-05-16T08:39:50.221Z,20.47
2023-05-16T08:44:51.977Z,20.49
2023-05-16T08:49:57.579Z,20.48
2023-05-16T08:55:11.381Z,20.52
2023-05-16T09:00:15.076Z,20.58
2023-05-16T09:05:17.948Z,20.86
2023-05-16T09:10:19.818Z,21.12
2023-05-16T09:15:23.806Z,21.39
2023-05-16T09:20:25.488Z,21.75
2023-05-16T09:25:31.464Z,21.69
2023-05-16T09:30:35.080Z,21.61
2023-05-16T09:35:43.860Z,21.67
2023-05-16T09:40:47.381Z,21.97
2023-05-16T09:45:49.725Z,22.33
2023-05-16T09:50:53.595Z,22.58
2023-05-16T09:56:11.162Z,22.79
2023-05-16T10:01:13.088Z,23.14
2023-05-16T10:06:16.592Z,23.49
2023-05-16T10:11:18.992Z,23.80
2023-05-16T10:16:22.596Z,23.75
2023-05-16T10:21:27.186Z,23.35
2023-05-16T10:26:29.885Z,23.45
2023-05-16T10:31:31.758Z,23.61
2023-05-16T10:36:34.617Z,23.57
2023-05-16T10:41:36.713Z,23.68
2023-05-16T10:46:42.191Z,23.66
2023-05-16T10:51:43.916Z,24.09
2023-05-16T10:56:56.217Z,24.52
2023-05-16T11:01:58.022Z,24.82
2023-05-16T11:07:01.583Z,24.90
2023-05-16T11:12:04.680Z,24.86
2023-05-16T11:17:23.798Z,24.84
2023-05-16T11:22:28.753Z,25.02
2023-05-16T11:27:32.545Z,24.91
2023-05-16T11:32:35.869Z,24.73
2023-05-16T11:37:39.323Z,24.41
2023-05-16T11:42:44.191Z,24.37
2023-05-16T11:47:48.236Z,24.47
2023-05-16T11:52:54.075Z,24.63
2023-05-16T11:57:58.663Z,24.48
2023-05-16T12:03:05.493Z,24.18
2023-05-16T12:08:17.100Z,24.25
2023-05-16T12:13:21.632Z,24.49
2023-05-16T12:18:24.288Z,24.56
2023-05-16T12:23:26.938Z,24.58
2023-05-16T12:28:35.577Z,24.25
2023-05-16T12:33:38.244Z,23.82
2023-05-16T12:38:40.034Z,23.34
2023-05-16T12:43:41.843Z,23.13
2023-05-16T12:48:44.218Z,23.14
2023-05-16T12:54:01.634Z,23.12
2023-05-16T12:59:12.732Z,23.14
2023-05-16T13:04:18.878Z,23.05
2023-05-16T13:09:21.449Z,22.90
2023-05-16T13:14:23.449Z,22.66
2023-05-16T13:19:25.595Z,22.35
2023-05-16T13:24:27.510Z,22.03
2023-05-16T13:29:29.378Z,21.63
2023-05-16T13:34:32.202Z,21.40
2023-05-16T13:39:33.976Z,21.15
2023-05-16T13:44:35.736Z,20.81
2023-05-16T13:49:38.896Z,20.28
2023-05-16T13:54:44.048Z,19.62
2023-05-16T14:00:11.415Z,18.92
2023-05-16T14:05:13.463Z,18.18
2023-05-16T14:10:15.347Z,17.58
2023-05-16T14:15:17.202Z,17.07
2023-05-16T14:20:18.996Z,16.70
2023-05-16T14:25:20.868Z,16.46
2023-05-16T14:30:22.687Z,16.29
2023-05-16T14:35:24.838Z,16.10
2023-05-16T14:40:26.628Z,16.02
2023-05-16T14:45:29.319Z,15.75
2023-05-16T14:50:31.640Z,15.43
2023-05-16T14:55:33.372Z,15.23
2023-05-16T15:00:35.462Z,15.15
2023-05-16T15:05:37.416Z,15.16
2023-05-16T15:10:39.245Z,15.09
2023-05-16T15:15:41.281Z,14.83
2023-05-16T15:20:42.955Z,14.62
2023-05-16T15:25:44.875Z,14.52
2023-05-16T15:30:46.788Z,14.49
2023-05-16T15:35:48.496Z,14.50
2023-05-16T15:40:55.286Z,14.49
2023-05-16T15:46:11.568Z,14.46
2023-05-16T15:51:15.872Z,14.39
2023-05-16T15:56:17.577Z,14.29
2023-05-16T16:01:19.341Z,14.24
2023-05-16T16:06:21.348Z,14.21
2023-05-16T16:11:23.454Z,14.17
2023-05-16T16:16:25.200Z,14.08
2023-05-16T16:21:27.378Z,13.97
2023-05-16T16:26:29.099Z,13.90
2023-05-16T16:31:31.002Z,13.86
2023-05-16T16:36:32.826Z,13.79
2023-05-16T16:41:34.561Z,13.70
2023-05-16T16:46:36.485Z,13.60
2023-05-16T16:51:38.351Z,13.53
2023-05-16T16:56:40.074Z,13.52
2023-05-16T17:01:42.101Z,13.55
2023-05-16T17:06:44.139Z,13.56
2023-05-16T17:11:46.969Z,13.56
2023-05-16T17:16:48.734Z,13.52
2023-05-16T17:21:51.774Z,13.49
2023-05-16T17:26:53.757Z,13.50
2023-05-16T17:31:55.947Z,13.47
2023-05-16T17:36:57.797Z,13.36
2023-05-16T17:41:59.520Z,13.30
2023-05-16T17:47:01.237Z,13.31
2023-05-16T17:52:05.916Z,13.33
2023-05-16T17:57:07.680Z,13.41
2023-05-16T18:02:10.136Z,13.46
2023-05-16T18:07:12.192Z,13.45
2023-05-16T18:12:14.256Z,13.38
2023-05-16T18:17:16.268Z,13.41
2023-05-16T18:22:18.382Z,13.37
2023-05-16T18:27:20.069Z,13.33
2023-05-16T18:32:21.934Z,13.35
2023-05-16T18:37:25.294Z,13.35
2023-05-16T18:42:27.408Z,13.31
2023-05-16T18:47:29.236Z,13.25
2023-05-16T18:52:31.172Z,13.24
2023-05-16T18:57:33.784Z,13.20
2023-05-16T19:07:42.703Z,13.16
2023-05-16T19:12:46.876Z,13.09
2023-05-16T19:17:49.629Z,13.11
2023-05-16T19:22:53.717Z,13.10
2023-05-16T19:27:55.579Z,13.06
2023-05-16T19:32:57.355Z,13.05
2023-05-16T19:38:00.141Z,13.01
2023-05-16T19:43:01.896Z,12.97
2023-05-16T19:48:03.849Z,12.95
2023-05-16T19:53:05.937Z,12.90
2023-05-16T19:58:07.654Z,12.85
2023-05-16T20:03:09.459Z,12.78
2023-05-16T20:08:12.158Z,12.70
2023-05-16T20:13:18.367Z,12.61
2023-05-16T20:18:20.103Z,12.52
2023-05-16T20:23:22.247Z,12.45
2023-05-16T20:28:23.936Z,12.35
2023-05-16T20:33:25.874Z,12.26
2023-05-16T20:38:27.911Z,12.18
2023-05-16T20:43:29.678Z,12.10
2023-05-16T20:48:31.589Z,12.02
2023-05-16T20:53:33.439Z,11.98
2023-05-16T20:58:35.339Z,11.94
2023-05-16T21:03:37.153Z,11.90
2023-05-16T21:08:39.443Z,11.85
2023-05-16T21:13:43.762Z,11.80
2023-05-16T21:18:45.602Z,11.77
2023-05-16T21:23:47.887Z,11.75
2023-05-16T21:28:54.960Z,11.76
2023-05-16T21:33:57.524Z,11.74
2023-05-16T21:39:01.837Z,11.73
2023-05-16T21:44:17.235Z,11.72
2023-05-16T21:49:20.841Z,11.73
2023-05-16T21:54:22.566Z,11.75
2023-05-16T21:59:24.268Z,11.73
2023-05-16T22:04:27.139Z,11.75
2023-05-16T22:09:29.094Z,11.78
2023-05-16T22:14:30.790Z,11.80
2023-05-16T22:19:32.528Z,11.81
2023-05-16T22:24:34.374Z,11.81
2023-05-16T22:29:38.321Z,11.82
2023-05-16T22:34:40.544Z,11.81
2023-05-16T22:39:42.300Z,11.78
2023-05-16T22:44:43.973Z,11.77
2023-05-16T22:49:45.733Z,11.76
2023-05-16T22:54:48.249Z,11.77
2023-05-16T22:59:49.940Z,11.76
2023-05-16T23:04:52.313Z,11.73
2023-05-16T23:09:56.442Z,11.73
2023-05-16T23:15:01.627Z,11.75
2023-05-16T23:20:04.834Z,11.74
2023-05-16T23:25:07.291Z,11.71
2023-05-16T23:30:10.847Z,11.64
2023-05-16T23:35:12.610Z,11.57
2023-05-16T23:40:14.986Z,11.52
2023-05-16T23:45:17.044Z,11.50
2023-05-16T23:50:20.998Z,11.50
2023-05-16T23:55:23.105Z,11.52
